createdAt,value
2022-10-26T00:02:43.380Z,9.77
2022-10-26T00:08:46.782Z,10.98
2022-10-26T00:14:48.902Z,10.90
2022-10-26T00:20:51.322Z,10.73
2022-10-26T00:26:53.475Z,9.63
2022-10-26T00:32:55.718Z,11.55
2022-10-26T00:38:58.110Z,10.15
2022-10-26T00:45:19.836Z,12.25
2022-10-26T00:51:33.109Z,12.00
2022-10-26T01:04:00.610Z,12.85
2022-10-26T01:10:03.073Z,12.25
2022-10-26T01:16:30.058Z,12.20
2022-10-26T01:22:42.285Z,12.88
2022-10-26T01:29:01.758Z,13.57
2022-10-26T01:35:11.082Z,12.82
2022-10-26T01:41:29.900Z,13.13
2022-10-26T01:47:34.256Z,10.75
2022-10-26T01:53:36.660Z,11.05
2022-10-26T01:59:38.730Z,10.60
2022-10-26T02:06:03.963Z,11.93
2022-10-26T02:12:16.117Z,11.82
2022-10-26T02:18:36.763Z,11.67
2022-10-26T02:24:40.583Z,10.48
2022-10-26T02:30:44.212Z,8.82
2022-10-26T02:36:49.263Z,9.93
2022-10-26T02:42:53.143Z,9.82
2022-10-26T02:48:56.578Z,9.80
2022-10-26T02:55:07.915Z,11.77
2022-10-26T03:01:09.969Z,10.40
2022-10-26T03:07:12.368Z,9.30
2022-10-26T03:13:14.819Z,10.80
2022-10-26T03:19:17.166Z,9.82
2022-10-26T03:25:19.426Z,10.52
2022-10-26T03:31:21.702Z,11.63
2022-10-26T03:37:24.366Z,10.27
2022-10-26T03:49:28.767Z,8.02
2022-10-26T03:55:31.001Z,8.50
2022-10-26T04:01:33.684Z,7.90
2022-10-26T04:13:38.591Z,8.27
2022-10-26T04:19:40.564Z,9.18
2022-10-26T04:25:43.681Z,8.63
2022-10-26T04:31:45.724Z,7.78
2022-10-26T04:37:48.070Z,9.67
2022-10-26T04:43:50.572Z,8.68
2022-10-26T04:49:52.601Z,11.82
2022-10-26T04:55:58.665Z,9.03
2022-10-26T05:02:00.775Z,9.50
2022-10-26T05:14:06.114Z,9.80
2022-10-26T05:20:13.430Z,9.30
2022-10-26T05:26:16.030Z,9.63
2022-10-26T05:38:20.687Z,9.13
2022-10-26T05:44:23.034Z,55.60
2022-10-26T05:50:25.282Z,15.27
2022-10-26T05:56:39.025Z,10.73
2022-10-26T06:03:13.150Z,11.50
2022-10-26T06:09:15.841Z,10.50
2022-10-26T06:22:03.506Z,9.70
2022-10-26T06:28:33.520Z,9.05
2022-10-26T06:34:38.813Z,8.02
2022-10-26T06:40:45.234Z,7.72
2022-10-26T06:47:10.037Z,7.45
2022-10-26T06:53:19.370Z,7.88
2022-10-26T06:59:29.380Z,9.35
2022-10-26T07:05:31.808Z,8.65
2022-10-26T07:17:49.804Z,8.63
2022-10-26T07:23:52.969Z,8.90
2022-10-26T07:29:55.414Z,8.57
2022-10-26T07:35:59.771Z,7.72
2022-10-26T07:42:01.871Z,7.75
2022-10-26T07:48:04.271Z,7.45
2022-10-26T07:54:06.504Z,6.43
2022-10-26T08:00:09.889Z,6.72
2022-10-26T08:06:12.482Z,6.93
2022-10-26T08:12:17.022Z,7.88
2022-10-26T08:18:19.137Z,35.28
2022-10-26T08:24:21.161Z,6.43
2022-10-26T08:36:26.986Z,3.80
2022-10-26T08:42:34.175Z,4.22
2022-10-26T08:48:39.847Z,4.97
2022-10-26T08:54:53.670Z,3.95
2022-10-26T09:00:55.691Z,3.58
2022-10-26T09:07:09.238Z,4.05
2022-10-26T09:13:36.943Z,4.57
2022-10-26T09:20:02.951Z,3.55
2022-10-26T09:26:10.553Z,4.30
2022-10-26T09:32:26.298Z,18.77
2022-10-26T09:38:40.506Z,4.72
2022-10-26T09:44:50.902Z,4.75
2022-10-26T09:50:53.181Z,3.45
2022-10-26T09:56:59.747Z,4.95
2022-10-26T10:03:02.099Z,4.55
2022-10-26T10:09:16.397Z,3.20
2022-10-26T10:15:24.357Z,3.90
2022-10-26T10:21:44.478Z,4.95
2022-10-26T10:27:54.729Z,4.18
2022-10-26T10:33:57.193Z,4.38
2022-10-26T10:40:31.596Z,4.00
2022-10-26T10:46:34.162Z,4.32
2022-10-26T10:52:36.620Z,4.00
2022-10-26T10:58:50.402Z,3.95
2022-10-26T11:05:24.782Z,3.00
2022-10-26T11:11:36.219Z,2.97
2022-10-26T11:17:58.418Z,3.28
2022-10-26T11:24:17.911Z,4.70
2022-10-26T11:30:27.963Z,3.53
2022-10-26T11:36:33.521Z,5.28
2022-10-26T11:42:35.431Z,4.18
2022-10-26T11:48:59.163Z,3.72
2022-10-26T11:55:03.099Z,3.63
2022-10-26T12:01:10.987Z,3.58
2022-10-26T12:07:30.514Z,4.40
2022-10-26T12:13:42.752Z,5.57
2022-10-26T12:26:24.083Z,3.50
2022-10-26T12:32:37.257Z,4.10
2022-10-26T12:38:41.067Z,4.55
2022-10-26T12:44:43.682Z,5.13
2022-10-26T12:50:45.857Z,4.90
2022-10-26T12:57:09.116Z,4.55
2022-10-26T13:03:31.726Z,4.25
2022-10-26T13:09:33.836Z,4.30
2022-10-26T13:15:38.580Z,5.40
2022-10-26T13:21:47.804Z,7.68
2022-10-26T13:28:02.058Z,4.03
2022-10-26T13:34:25.707Z,4.43
2022-10-26T13:40:29.873Z,3.45
2022-10-26T13:46:36.274Z,4.10
2022-10-26T13:52:48.374Z,4.82
2022-10-26T13:59:06.346Z,4.20
2022-10-26T14:05:12.656Z,4.80
2022-10-26T14:11:21.871Z,4.05
2022-10-26T14:17:26.170Z,3.92
2022-10-26T14:23:46.331Z,4.00
2022-10-26T14:30:16.778Z,3.92
2022-10-26T14:36:11.284Z,4.57
2022-10-26T14:42:28.636Z,4.00
2022-10-26T14:48:33.899Z,4.40
2022-10-26T14:54:36.007Z,4.30
2022-10-26T15:00:38.101Z,4.18
2022-10-26T15:06:43.167Z,5.13
2022-10-26T15:12:45.247Z,6.00
2022-10-26T15:18:51.622Z,4.80
2022-10-26T15:24:56.457Z,5.80
2022-10-26T15:31:12.257Z,8.13
2022-10-26T15:37:14.411Z,10.43
2022-10-26T15:43:16.387Z,10.27
2022-10-26T15:49:20.575Z,10.53
2022-10-26T15:55:22.742Z,9.35
2022-10-26T16:01:29.492Z,11.18
2022-10-26T16:07:31.737Z,9.43
2022-10-26T16:13:33.955Z,9.90
2022-10-26T16:19:36.270Z,12.00
2022-10-26T16:25:44.828Z,10.57
2022-10-26T16:31:47.508Z,12.38
2022-10-26T16:37:49.739Z,12.80
2022-10-26T16:43:51.885Z,14.38
2022-10-26T16:49:54.299Z,13.45
2022-10-26T16:56:02.547Z,13.65
2022-10-26T17:02:05.192Z,14.50
2022-10-26T17:08:07.779Z,20.65
2022-10-26T17:14:09.929Z,17.92
2022-10-26T17:20:12.356Z,17.40
2022-10-26T17:26:14.870Z,18.05
2022-10-26T17:32:17.097Z,17.55
2022-10-26T17:38:19.298Z,15.20
2022-10-26T17:44:21.466Z,16.95
2022-10-26T17:50:23.562Z,19.38
2022-10-26T17:56:28.283Z,22.55
2022-10-26T18:02:31.610Z,23.38
2022-10-26T18:08:35.007Z,22.15
2022-10-26T18:14:37.228Z,17.90
2022-10-26T18:20:39.444Z,19.73
2022-10-26T18:26:42.557Z,20.17
2022-10-26T18:32:44.607Z,19.67
2022-10-26T18:38:47.976Z,21.42
2022-10-26T18:44:50.062Z,17.90
2022-10-26T18:50:52.372Z,16.40
2022-10-26T18:56:54.775Z,15.02
2022-10-26T19:02:57.106Z,15.80
2022-10-26T19:08:59.956Z,21.13
2022-10-26T19:15:02.041Z,18.27
2022-10-26T19:21:07.395Z,17.58
2022-10-26T19:27:09.716Z,16.52
2022-10-26T19:33:12.066Z,18.92
2022-10-26T19:39:17.892Z,16.83
2022-10-26T19:45:20.004Z,14.95
2022-10-26T19:51:23.245Z,13.88
2022-10-26T19:57:25.229Z,14.52
2022-10-26T20:03:29.327Z,10.77
2022-10-26T20:09:32.726Z,8.32
2022-10-26T20:15:35.216Z,6.75
2022-10-26T20:21:38.367Z,7.20
2022-10-26T20:27:42.266Z,8.07
2022-10-26T20:33:44.766Z,6.72
2022-10-26T20:39:47.237Z,6.35
2022-10-26T20:45:49.603Z,6.38
2022-10-26T20:52:18.960Z,6.38
2022-10-26T20:58:38.926Z,6.88
2022-10-26T21:04:41.122Z,5.05
2022-10-26T21:10:43.348Z,5.65
2022-10-26T21:16:45.437Z,5.97
2022-10-26T21:22:48.006Z,5.67
2022-10-26T21:34:52.098Z,4.95
2022-10-26T21:41:11.543Z,4.97
2022-10-26T21:47:14.066Z,4.70
2022-10-26T21:53:16.623Z,4.75
2022-10-26T21:59:18.795Z,4.63
2022-10-26T22:05:20.961Z,4.55
2022-10-26T22:11:25.010Z,4.65
2022-10-26T22:17:27.316Z,4.00
2022-10-26T22:23:29.600Z,4.20
2022-10-26T22:29:31.818Z,4.45
2022-10-26T22:35:33.986Z,4.05
2022-10-26T22:41:36.003Z,4.30
2022-10-26T22:47:37.954Z,4.50
2022-10-26T22:53:39.987Z,5.17
2022-10-26T22:59:41.952Z,4.70
2022-10-26T23:05:48.243Z,3.17
2022-10-26T23:11:50.299Z,4.60
2022-10-26T23:17:54.038Z,3.87
2022-10-26T23:23:56.674Z,4.47
2022-10-26T23:36:01.815Z,4.07
2022-10-26T23:42:03.863Z,2.95
2022-10-26T23:48:06.100Z,4.20
2022-10-26T23:54:08.238Z,3.55
